Monroe, New Hampshire
Current Conditions -  °F | °C
As of 9:35 PM on Saturday 25 Oct 2014 (Local Time) from KCDA Reporting Station
Moderate Rain Moderate Rain  
Wind Chill: 45°   Ceiling: 4000
Heat Index: 47°   Visibility: 1.5mi
Dew Point: 45°   Wind: 6mph
Humidity: 90%   Direction: 90°E
Pressure: 29.49"   Gusts: NA
Location:  44.26°N, 72.06°W
Report Text: KCDA 260135Z AUTO 09005KT 1 1/2SM RA SCT022 BKN040 OVC046 09/07 A2949 RMK AO2 T00860070
Loading
Personal Weather Stations






























Interactive Weather Map
Tropical Storm Tracking
New forecast layout! Learn more

10-Day Weather Forecast

Advertisements
Track Severe Weather on mobile